Wildwood, New Jersey
Current Conditions -  °F | °C
As of 1:15 PM on Saturday 22 Nov 2014 (Local Time) from KWWD Reporting Station
Clear Clear  
Wind Chill: 38°   Ceiling: Unl
Heat Index: 45°   Visibility: 10mi
Dew Point: 19°   Wind: 15mph
Humidity: 37%   Direction: 220°SW
Pressure: 30.39"   Gusts: 21mph
Location:  38.99°N, 74.81°W
Report Text: KWWD 221815Z AUTO 22013G18KT 10SM CLR 07/M07 A3039 RMK AO1
Loading
Personal Weather Stations






























Interactive Weather Map New forecast layout! Learn more

10-Day Weather Forecast

Advertisements
Track Severe Weather on mobile